If you wish to contribute or participate in the discussions about articles you are invited to join SKYbrary as a registered user

 Actions

Kalibo International Airport

From SKYbrary Wiki

RPVK
Airport
ICAO: RPVK – IATA: KLO
Summary
Name Kalibo International Airport
Region Asia and Pacific
Territory Philippines PH.gif
Location Kalibo, Aklan
Serving Kalibo
Elevation 4.267 m
14 ft4.267 m
Coordinates 11° 40' 45.01" N, 122° 22' 32.99" E
Runways
Designator Length Width Surface ROPS
5/23 2187 m7,175.197 ft
45 m147.638 ft
CON yes/yes


METAR
Observation RPVK 191400Z 21003KT 9999 FEW016 SCT240 26/24 Q1009 RMK A2980
Station KALIBO/PANAY ISL
Date/Time 19 November 2019 14:00:00
Wind direction 210°
Wind speed 03 kts
Lowest cloud amount few clouds
Temperature 26°C
Dew point 24°C
Humidity 88%
QNH 1009 hPa
Weather condition n/a

Kalibo International Airport is an international airport that serves the general area of Kalibo, the capital of the province of Aklan in the Philippines.

Climatology

Tropical monsoon climate (Köppen climate classification Am)

Maps

Terrain

Loading map...

Airport Layout

Loading map...


Accidents & Serious Incidents at or in vicinity of RPVK

None on SKYbrary